sensor_id;sensor_type;location;lat;lon;timestamp;pressure;altitude;pressure_sealevel;temperature;humidity
33496;BME280;19836;55.812;37.560;2023-04-26T00:00:26;98335.69;;;14.77;64.54
33496;BME280;19836;55.812;37.560;2023-04-26T00:02:53;98330.31;;;14.77;65.09
33496;BME280;19836;55.812;37.560;2023-04-26T00:05:20;98325.00;;;14.76;64.93
33496;BME280;19836;55.812;37.560;2023-04-26T00:07:46;98323.41;;;14.73;65.49
33496;BME280;19836;55.812;37.560;2023-04-26T00:10:15;98321.03;;;14.69;65.12
33496;BME280;19836;55.812;37.560;2023-04-26T00:12:40;98317.47;;;14.68;65.48
33496;BME280;19836;55.812;37.560;2023-04-26T00:15:07;98308.50;;;14.68;65.91
33496;BME280;19836;55.812;37.560;2023-04-26T00:17:34;98308.28;;;14.71;65.77
33496;BME280;19836;55.812;37.560;2023-04-26T00:19:59;98306.47;;;14.71;65.81
33496;BME280;19836;55.812;37.560;2023-04-26T00:22:26;98301.28;;;14.68;65.36
33496;BME280;19836;55.812;37.560;2023-04-26T00:24:52;98299.84;;;14.63;65.55
33496;BME280;19836;55.812;37.560;2023-04-26T00:27:18;98302.69;;;14.61;65.71
33496;BME280;19836;55.812;37.560;2023-04-26T00:29:44;98300.94;;;14.60;65.49
33496;BME280;19836;55.812;37.560;2023-04-26T00:32:10;98294.06;;;14.56;65.53
33496;BME280;19836;55.812;37.560;2023-04-26T00:34:36;98302.13;;;14.56;65.88
33496;BME280;19836;55.812;37.560;2023-04-26T00:37:03;98294.25;;;14.53;66.02
33496;BME280;19836;55.812;37.560;2023-04-26T00:39:30;98299.84;;;14.50;66.09
33496;BME280;19836;55.812;37.560;2023-04-26T00:41:56;98293.59;;;14.50;66.47
33496;BME280;19836;55.812;37.560;2023-04-26T00:44:23;98287.56;;;14.46;66.92
33496;BME280;19836;55.812;37.560;2023-04-26T00:46:51;98277.97;;;14.42;66.69
33496;BME280;19836;55.812;37.560;2023-04-26T00:49:20;98279.88;;;14.40;67.27
33496;BME280;19836;55.812;37.560;2023-04-26T00:51:49;98280.97;;;14.38;67.31
33496;BME280;19836;55.812;37.560;2023-04-26T00:54:17;98276.78;;;14.34;67.26
33496;BME280;19836;55.812;37.560;2023-04-26T00:56:44;98265.31;;;14.30;67.66
33496;BME280;19836;55.812;37.560;2023-04-26T00:59:11;98266.28;;;14.29;67.55
33496;BME280;19836;55.812;37.560;2023-04-26T01:01:37;98262.63;;;14.30;67.83
33496;BME280;19836;55.812;37.560;2023-04-26T01:04:03;98256.94;;;14.35;67.83
33496;BME280;19836;55.812;37.560;2023-04-26T01:06:33;98259.19;;;14.41;68.10
33496;BME280;19836;55.812;37.560;2023-04-26T01:09:01;98249.16;;;14.43;68.02
33496;BME280;19836;55.812;37.560;2023-04-26T01:11:30;98245.63;;;14.42;67.90
33496;BME280;19836;55.812;37.560;2023-04-26T01:13:57;98246.69;;;14.40;67.61
33496;BME280;19836;55.812;37.560;2023-04-26T01:16:23;98243.13;;;14.39;67.63
33496;BME280;19836;55.812;37.560;2023-04-26T01:18:50;98241.84;;;14.32;67.74
33496;BME280;19836;55.812;37.560;2023-04-26T01:21:21;98239.44;;;14.28;67.95
33496;BME280;19836;55.812;37.560;2023-04-26T01:23:50;98234.19;;;14.26;68.16
33496;BME280;19836;55.812;37.560;2023-04-26T01:26:17;98231.50;;;14.26;68.06
33496;BME280;19836;55.812;37.560;2023-04-26T01:28:43;98235.47;;;14.21;68.27
33496;BME280;19836;55.812;37.560;2023-04-26T01:31:10;98231.09;;;14.18;68.60
33496;BME280;19836;55.812;37.560;2023-04-26T01:33:36;98222.69;;;14.10;68.73
33496;BME280;19836;55.812;37.560;2023-04-26T01:36:07;98219.34;;;14.07;69.30
33496;BME280;19836;55.812;37.560;2023-04-26T01:38:34;98222.69;;;14.10;69.00
33496;BME280;19836;55.812;37.560;2023-04-26T01:41:00;98215.47;;;14.11;69.55
33496;BME280;19836;55.812;37.560;2023-04-26T01:43:25;98207.41;;;14.11;69.42
33496;BME280;19836;55.812;37.560;2023-04-26T01:45:52;98209.44;;;14.07;69.28
33496;BME280;19836;55.812;37.560;2023-04-26T01:48:28;98207.91;;;14.03;69.47
33496;BME280;19836;55.812;37.560;2023-04-26T01:50:54;98203.28;;;14.05;69.36
33496;BME280;19836;55.812;37.560;2023-04-26T01:53:20;98196.94;;;14.06;69.48
33496;BME280;19836;55.812;37.560;2023-04-26T01:55:46;98195.19;;;14.05;69.65
33496;BME280;19836;55.812;37.560;2023-04-26T01:58:12;98195.34;;;14.04;69.83
33496;BME280;19836;55.812;37.560;2023-04-26T02:00:39;98184.97;;;14.10;69.83
33496;BME280;19836;55.812;37.560;2023-04-26T02:03:05;98187.47;;;14.13;69.59
33496;BME280;19836;55.812;37.560;2023-04-26T02:05:30;98183.81;;;14.14;69.76
33496;BME280;19836;55.812;37.560;2023-04-26T02:07:56;98182.97;;;14.14;70.16
33496;BME280;19836;55.812;37.560;2023-04-26T02:10:22;98183.06;;;14.12;69.87
33496;BME280;19836;55.812;37.560;2023-04-26T02:12:49;98172.38;;;14.11;70.25
33496;BME280;19836;55.812;37.560;2023-04-26T02:15:15;98174.09;;;14.12;70.27
33496;BME280;19836;55.812;37.560;2023-04-26T02:17:41;98171.50;;;14.10;70.22
33496;BME280;19836;55.812;37.560;2023-04-26T02:20:07;98169.03;;;14.07;70.21
33496;BME280;19836;55.812;37.560;2023-04-26T02:22:35;98166.34;;;14.07;70.08
33496;BME280;19836;55.812;37.560;2023-04-26T02:25:01;98163.13;;;14.02;70.25
33496;BME280;19836;55.812;37.560;2023-04-26T02:27:29;98164.84;;;14.03;70.49
33496;BME280;19836;55.812;37.560;2023-04-26T02:29:56;98155.13;;;14.01;70.71
33496;BME280;19836;55.812;37.560;2023-04-26T02:32:22;98163.13;;;14.02;70.79
33496;BME280;19836;55.812;37.560;2023-04-26T02:34:48;98156.94;;;14.00;70.88
33496;BME280;19836;55.812;37.560;2023-04-26T02:37:14;98153.50;;;13.98;70.83
33496;BME280;19836;55.812;37.560;2023-04-26T02:39:40;98152.53;;;13.99;70.68
33496;BME280;19836;55.812;37.560;2023-04-26T02:42:09;98151.91;;;13.96;70.93
33496;BME280;19836;55.812;37.560;2023-04-26T02:44:36;98146.06;;;13.89;71.20
33496;BME280;19836;55.812;37.560;2023-04-26T02:47:05;98138.97;;;13.88;71.45
33496;BME280;19836;55.812;37.560;2023-04-26T02:49:31;98136.16;;;13.90;71.36
33496;BME280;19836;55.812;37.560;2023-04-26T02:51:58;98139.94;;;13.87;71.26
33496;BME280;19836;55.812;37.560;2023-04-26T02:54:25;98137.25;;;13.87;71.35
33496;BME280;19836;55.812;37.560;2023-04-26T02:56:52;98138.22;;;13.86;71.64
33496;BME280;19836;55.812;37.560;2023-04-26T02:59:20;98140.91;;;13.86;71.70
33496;BME280;19836;55.812;37.560;2023-04-26T03:01:47;98135.53;;;13.86;71.74
33496;BME280;19836;55.812;37.560;2023-04-26T03:04:13;98137.66;;;13.81;71.87
33496;BME280;19836;55.812;37.560;2023-04-26T03:06:43;98139.13;;;13.73;72.05
33496;BME280;19836;55.812;37.560;2023-04-26T03:09:09;98132.69;;;13.75;72.29
33496;BME280;19836;55.812;37.560;2023-04-26T03:11:36;98128.16;;;13.76;72.90
33496;BME280;19836;55.812;37.560;2023-04-26T03:14:02;98120.84;;;13.78;73.03
33496;BME280;19836;55.812;37.560;2023-04-26T03:16:29;98121.06;;;13.75;73.64
33496;BME280;19836;55.812;37.560;2023-04-26T03:18:57;98118.91;;;13.67;73.61
33496;BME280;19836;55.812;37.560;2023-04-26T03:21:23;98121.88;;;13.63;73.88
33496;BME280;19836;55.812;37.560;2023-04-26T03:23:50;98121.25;;;13.59;74.05
33496;BME280;19836;55.812;37.560;2023-04-26T03:26:16;98127.13;;;13.52;74.32
33496;BME280;19836;55.812;37.560;2023-04-26T03:28:43;98124.69;;;13.49;74.54
33496;BME280;19836;55.812;37.560;2023-04-26T03:31:09;98114.97;;;13.46;74.71
33496;BME280;19836;55.812;37.560;2023-04-26T03:33:37;98116.91;;;13.44;74.80
33496;BME280;19836;55.812;37.560;2023-04-26T03:36:04;98112.59;;;13.42;75.07
33496;BME280;19836;55.812;37.560;2023-04-26T03:38:31;98110.97;;;13.39;75.30
33496;BME280;19836;55.812;37.560;2023-04-26T03:40:58;98101.16;;;13.38;75.66
33496;BME280;19836;55.812;37.560;2023-04-26T03:43:24;98111.50;;;13.44;75.96
33496;BME280;19836;55.812;37.560;2023-04-26T03:45:51;98103.53;;;13.43;76.03
33496;BME280;19836;55.812;37.560;2023-04-26T03:48:17;98109.03;;;13.41;76.11
33496;BME280;19836;55.812;37.560;2023-04-26T03:50:44;98104.59;;;13.40;76.04
33496;BME280;19836;55.812;37.560;2023-04-26T03:53:11;98102.78;;;13.41;76.46
33496;BME280;19836;55.812;37.560;2023-04-26T03:55:38;98104.41;;;13.43;76.41
33496;BME280;19836;55.812;37.560;2023-04-26T03:58:05;98098.84;;;13.46;76.62
33496;BME280;19836;55.812;37.560;2023-04-26T04:00:36;98097.78;;;13.49;76.54
33496;BME280;19836;55.812;37.560;2023-04-26T04:03:02;98093.88;;;13.53;76.83
33496;BME280;19836;55.812;37.560;2023-04-26T04:05:32;98094.31;;;13.47;76.73
33496;BME280;19836;55.812;37.560;2023-04-26T04:07:59;98097.22;;;13.44;77.14
33496;BME280;19836;55.812;37.560;2023-04-26T04:10:25;98094.41;;;13.45;77.20
33496;BME280;19836;55.812;37.560;2023-04-26T04:12:53;98088.72;;;13.50;77.42
33496;BME280;19836;55.812;37.560;2023-04-26T04:15:20;98091.19;;;13.53;77.56
33496;BME280;19836;55.812;37.560;2023-04-26T04:17:47;98090.91;;;13.57;77.72
33496;BME280;19836;55.812;37.560;2023-04-26T04:20:14;98087.22;;;13.58;77.55
33496;BME280;19836;55.812;37.560;2023-04-26T04:22:42;98085.72;;;13.54;77.70
33496;BME280;19836;55.812;37.560;2023-04-26T04:25:09;98082.91;;;13.56;77.54
33496;BME280;19836;55.812;37.560;2023-04-26T04:27:36;98085.59;;;13.56;77.71
33496;BME280;19836;55.812;37.560;2023-04-26T04:30:04;98084.53;;;13.58;77.74
33496;BME280;19836;55.812;37.560;2023-04-26T04:32:40;98079.69;;;13.63;77.63
33496;BME280;19836;55.812;37.560;2023-04-26T04:35:13;98082.19;;;13.66;77.73
33496;BME280;19836;55.812;37.560;2023-04-26T04:37:40;98075.84;;;13.67;77.35
33496;BME280;19836;55.812;37.560;2023-04-26T04:40:09;98077.03;;;13.76;77.52
33496;BME280;19836;55.812;37.560;2023-04-26T04:42:36;98076.69;;;13.80;77.42
33496;BME280;19836;55.812;37.560;2023-04-26T04:45:15;98079.09;;;13.85;76.96
33496;BME280;19836;55.812;37.560;2023-04-26T04:47:43;98077.03;;;13.88;76.99
33496;BME280;19836;55.812;37.560;2023-04-26T04:50:10;98083.94;;;13.92;77.03
33496;BME280;19836;55.812;37.560;2023-04-26T04:52:37;98081.56;;;14.00;76.70
33496;BME280;19836;55.812;37.560;2023-04-26T04:55:03;98077.78;;;14.03;76.36
33496;BME280;19836;55.812;37.560;2023-04-26T04:57:31;98081.69;;;14.11;76.45
33496;BME280;19836;55.812;37.560;2023-04-26T04:59:58;98073.25;;;14.16;75.76
33496;BME280;19836;55.812;37.560;2023-04-26T05:02:29;98080.38;;;14.29;75.72
33496;BME280;19836;55.812;37.560;2023-04-26T05:04:57;98078.03;;;14.37;75.50
33496;BME280;19836;55.812;37.560;2023-04-26T05:07:24;98075.44;;;14.36;75.09
33496;BME280;19836;55.812;37.560;2023-04-26T05:09:52;98088.03;;;14.35;75.27
33496;BME280;19836;55.812;37.560;2023-04-26T05:12:19;98082.53;;;14.37;75.18
33496;BME280;19836;55.812;37.560;2023-04-26T05:14:46;98083.41;;;14.37;75.37
33496;BME280;19836;55.812;37.560;2023-04-26T05:17:13;98083.41;;;14.37;75.00
33496;BME280;19836;55.812;37.560;2023-04-26T05:19:39;98077.56;;;14.43;75.56
33496;BME280;19836;55.812;37.560;2023-04-26T05:22:06;98079.81;;;14.49;75.11
33496;BME280;19836;55.812;37.560;2023-04-26T05:24:33;98076.03;;;14.52;74.91
33496;BME280;19836;55.812;37.560;2023-04-26T05:27:00;98076.03;;;14.52;74.36
33496;BME280;19836;55.812;37.560;2023-04-26T05:29:42;98075.63;;;14.45;74.55
33496;BME280;19836;55.812;37.560;2023-04-26T05:32:25;98082.22;;;14.41;75.00
33496;BME280;19836;55.812;37.560;2023-04-26T05:35:09;98083.72;;;14.45;74.58
33496;BME280;19836;55.812;37.560;2023-04-26T05:37:36;98091.38;;;14.51;75.01
33496;BME280;19836;55.812;37.560;2023-04-26T05:40:05;98076.56;;;14.57;74.98
33496;BME280;19836;55.812;37.560;2023-04-26T05:42:33;98078.97;;;14.61;74.72
33496;BME280;19836;55.812;37.560;2023-04-26T05:44:59;98077.09;;;14.62;74.76
33496;BME280;19836;55.812;37.560;2023-04-26T05:47:28;98075.28;;;14.62;75.04
33496;BME280;19836;55.812;37.560;2023-04-26T05:49:55;98076.47;;;14.58;75.21
33496;BME280;19836;55.812;37.560;2023-04-26T05:52:21;98073.97;;;14.55;75.09
33496;BME280;19836;55.812;37.560;2023-04-26T05:54:49;98078.09;;;14.48;75.10
33496;BME280;19836;55.812;37.560;2023-04-26T05:57:15;98078.84;;;14.50;75.44
33496;BME280;19836;55.812;37.560;2023-04-26T05:59:43;98076.69;;;14.55;75.44
33496;BME280;19836;55.812;37.560;2023-04-26T06:02:09;98076.69;;;14.55;75.35
33496;BME280;19836;55.812;37.560;2023-04-26T06:04:38;98085.75;;;14.54;75.62
33496;BME280;19836;55.812;37.560;2023-04-26T06:07:09;98082.50;;;14.49;75.71
33496;BME280;19836;55.812;37.560;2023-04-26T06:09:35;98082.06;;;14.55;75.70
33496;BME280;19836;55.812;37.560;2023-04-26T06:12:03;98090.06;;;14.57;75.60
33496;BME280;19836;55.812;37.560;2023-04-26T06:14:32;98089.53;;;14.52;75.80
33496;BME280;19836;55.812;37.560;2023-04-26T06:17:03;98086.72;;;14.53;75.69
33496;BME280;19836;55.812;37.560;2023-04-26T06:19:29;98090.41;;;14.52;75.88
33496;BME280;19836;55.812;37.560;2023-04-26T06:21:55;98080.34;;;14.54;76.25
33496;BME280;19836;55.812;37.560;2023-04-26T06:24:22;98087.47;;;14.55;75.55
33496;BME280;19836;55.812;37.560;2023-04-26T06:26:50;98082.31;;;14.52;75.90
33496;BME280;19836;55.812;37.560;2023-04-26T06:29:16;98094.59;;;14.56;75.78
33496;BME280;19836;55.812;37.560;2023-04-26T06:31:42;98087.25;;;14.58;76.09
33496;BME280;19836;55.812;37.560;2023-04-26T06:34:08;98091.75;;;14.58;76.40
33496;BME280;19836;55.812;37.560;2023-04-26T06:36:35;98088.34;;;14.56;76.16
33496;BME280;19836;55.812;37.560;2023-04-26T06:39:01;98087.69;;;14.52;76.04
33496;BME280;19836;55.812;37.560;2023-04-26T06:41:27;98092.84;;;14.55;76.23
33496;BME280;19836;55.812;37.560;2023-04-26T06:43:53;98096.75;;;14.51;76.24
33496;BME280;19836;55.812;37.560;2023-04-26T06:46:20;98100.00;;;14.56;76.22
33496;BME280;19836;55.812;37.560;2023-04-26T06:48:53;98098.78;;;14.60;76.33
33496;BME280;19836;55.812;37.560;2023-04-26T06:51:20;98101.19;;;14.52;76.01
33496;BME280;19836;55.812;37.560;2023-04-26T06:53:46;98094.16;;;14.50;76.32
33496;BME280;19836;55.812;37.560;2023-04-26T06:56:13;98099.66;;;14.48;76.02
33496;BME280;19836;55.812;37.560;2023-04-26T06:58:44;98104.19;;;14.48;76.45
33496;BME280;19836;55.812;37.560;2023-04-26T07:01:22;98105.50;;;14.42;76.62
33496;BME280;19836;55.812;37.560;2023-04-26T07:03:48;98114.22;;;14.46;76.72
33496;BME280;19836;55.812;37.560;2023-04-26T07:06:14;98105.59;;;14.41;76.33
33496;BME280;19836;55.812;37.560;2023-04-26T07:08:41;98108.41;;;14.39;76.70
33496;BME280;19836;55.812;37.560;2023-04-26T07:11:11;98107.22;;;14.43;77.28
33496;BME280;19836;55.812;37.560;2023-04-26T07:13:37;98108.94;;;14.44;77.12
33496;BME280;19836;55.812;37.560;2023-04-26T07:16:03;98108.94;;;14.44;76.92
33496;BME280;19836;55.812;37.560;2023-04-26T07:18:30;98114.31;;;14.44;76.92
33496;BME280;19836;55.812;37.560;2023-04-26T07:20:56;98123.28;;;14.45;76.78
33496;BME280;19836;55.812;37.560;2023-04-26T07:23:22;98115.84;;;14.48;77.30
33496;BME280;19836;55.812;37.560;2023-04-26T07:25:48;98120.03;;;14.52;76.98
33496;BME280;19836;55.812;37.560;2023-04-26T07:28:14;98120.47;;;14.59;76.39
33496;BME280;19836;55.812;37.560;2023-04-26T07:30:40;98127.75;;;14.69;76.32
33496;BME280;19836;55.812;37.560;2023-04-26T07:33:06;98121.72;;;14.78;75.91
33496;BME280;19836;55.812;37.560;2023-04-26T07:35:32;98124.72;;;14.86;76.01
33496;BME280;19836;55.812;37.560;2023-04-26T07:38:00;98123.91;;;14.97;75.86
33496;BME280;19836;55.812;37.560;2023-04-26T07:40:26;98127.56;;;15.08;75.36
33496;BME280;19836;55.812;37.560;2023-04-26T07:42:54;98130.25;;;15.08;75.44
33496;BME280;19836;55.812;37.560;2023-04-26T07:45:20;98128.09;;;15.13;75.36
33496;BME280;19836;55.812;37.560;2023-04-26T07:47:46;98132.81;;;15.22;74.91
33496;BME280;19836;55.812;37.560;2023-04-26T07:50:12;98127.41;;;15.22;74.64
33496;BME280;19836;55.812;37.560;2023-04-26T07:52:40;98128.91;;;15.26;74.48
33496;BME280;19836;55.812;37.560;2023-04-26T07:55:08;98125.34;;;15.26;74.72
33496;BME280;19836;55.812;37.560;2023-04-26T07:57:34;98133.44;;;15.26;74.48
33496;BME280;19836;55.812;37.560;2023-04-26T08:00:00;98132.34;;;15.28;74.18
33496;BME280;19836;55.812;37.560;2023-04-26T08:02:26;98125.75;;;15.32;74.41
33496;BME280;19836;55.812;37.560;2023-04-26T08:04:52;98131.59;;;15.26;74.13
33496;BME280;19836;55.812;37.560;2023-04-26T08:07:19;98140.13;;;15.20;74.21
33496;BME280;19836;55.812;37.560;2023-04-26T08:09:46;98136.69;;;15.18;73.75
33496;BME280;19836;55.812;37.560;2023-04-26T08:12:14;98145.53;;;15.20;74.10
33496;BME280;19836;55.812;37.560;2023-04-26T08:14:39;98153.06;;;15.28;74.38
33496;BME280;19836;55.812;37.560;2023-04-26T08:17:09;98137.00;;;15.26;74.06
33496;BME280;19836;55.812;37.560;2023-04-26T08:19:35;98145.72;;;15.30;73.96
33496;BME280;19836;55.812;37.560;2023-04-26T08:22:01;98148.19;;;15.33;73.88
33496;BME280;19836;55.812;37.560;2023-04-26T08:24:27;98146.66;;;15.41;73.46
33496;BME280;19836;55.812;37.560;2023-04-26T08:26:54;98141.34;;;15.52;73.50
33496;BME280;19836;55.812;37.560;2023-04-26T08:29:21;98149.94;;;15.57;73.15
33496;BME280;19836;55.812;37.560;2023-04-26T08:31:47;98149.59;;;15.62;73.43
33496;BME280;19836;55.812;37.560;2023-04-26T08:34:13;98148.44;;;15.53;73.29
33496;BME280;19836;55.812;37.560;2023-04-26T08:36:40;98156.72;;;15.39;73.24
33496;BME280;19836;55.812;37.560;2023-04-26T08:39:07;98159.44;;;15.27;72.90
33496;BME280;19836;55.812;37.560;2023-04-26T08:41:41;98163.00;;;15.27;73.08
33496;BME280;19836;55.812;37.560;2023-04-26T08:44:07;98164.06;;;15.37;73.18
33496;BME280;19836;55.812;37.560;2023-04-26T08:46:55;98160.16;;;15.41;72.62
33496;BME280;19836;55.812;37.560;2023-04-26T08:49:40;98159.88;;;15.57;72.49
33496;BME280;19836;55.812;37.560;2023-04-26T08:52:09;98159.81;;;15.69;72.21
33496;BME280;19836;55.812;37.560;2023-04-26T08:54:37;98164.59;;;15.66;71.65
33496;BME280;19836;55.812;37.560;2023-04-26T08:57:03;98165.91;;;15.60;71.71
33496;BME280;19836;55.812;37.560;2023-04-26T08:59:30;98160.97;;;15.54;71.47
33496;BME280;19836;55.812;37.560;2023-04-26T09:01:56;98166.16;;;15.57;71.63
33496;BME280;19836;55.812;37.560;2023-04-26T09:04:23;98156.19;;;15.58;71.54
33496;BME280;19836;55.812;37.560;2023-04-26T09:06:49;98162.00;;;15.64;71.58
33496;BME280;19836;55.812;37.560;2023-04-26T09:09:18;98170.22;;;15.63;71.45
33496;BME280;19836;55.812;37.560;2023-04-26T09:11:58;98169.94;;;15.55;71.67
33496;BME280;19836;55.812;37.560;2023-04-26T09:14:26;98173.47;;;15.55;71.71
33496;BME280;19836;55.812;37.560;2023-04-26T09:16:53;98176.94;;;15.57;71.55
33496;BME280;19836;55.812;37.560;2023-04-26T09:19:35;98181.63;;;15.66;71.65
33496;BME280;19836;55.812;37.560;2023-04-26T09:22:02;98172.59;;;15.67;71.58
33496;BME280;19836;55.812;37.560;2023-04-26T09:24:46;98184.53;;;15.76;71.42
33496;BME280;19836;55.812;37.560;2023-04-26T09:27:13;98177.41;;;15.75;71.50
33496;BME280;19836;55.812;37.560;2023-04-26T09:29:56;98182.66;;;15.76;71.63
33496;BME280;19836;55.812;37.560;2023-04-26T09:32:22;98186.03;;;15.80;71.48
33496;BME280;19836;55.812;37.560;2023-04-26T09:34:49;98188.34;;;15.84;71.43
33496;BME280;19836;55.812;37.560;2023-04-26T09:37:15;98188.25;;;15.86;71.32
33496;BME280;19836;55.812;37.560;2023-04-26T09:39:41;98179.38;;;15.84;71.11
33496;BME280;19836;55.812;37.560;2023-04-26T09:42:09;98183.13;;;15.70;71.26
33496;BME280;19836;55.812;37.560;2023-04-26T09:44:38;98184.38;;;15.54;71.36
33496;BME280;19836;55.812;37.560;2023-04-26T09:47:09;98190.31;;;15.35;71.94
33496;BME280;19836;55.812;37.560;2023-04-26T09:49:49;98184.50;;;15.29;72.76
33496;BME280;19836;55.812;37.560;2023-04-26T09:52:17;98192.69;;;15.27;72.91
33496;BME280;19836;55.812;37.560;2023-04-26T09:54:48;98200.34;;;15.33;72.63
33496;BME280;19836;55.812;37.560;2023-04-26T09:57:17;98194.50;;;15.39;72.98
33496;BME280;19836;55.812;37.560;2023-04-26T09:59:46;98201.16;;;15.46;72.53
33496;BME280;19836;55.812;37.560;2023-04-26T10:02:24;98200.00;;;15.61;72.81
33496;BME280;19836;55.812;37.560;2023-04-26T10:04:54;98199.13;;;15.73;72.07
33496;BME280;19836;55.812;37.560;2023-04-26T10:07:23;98192.38;;;15.79;72.13
33496;BME280;19836;55.812;37.560;2023-04-26T10:09:50;98201.88;;;15.84;72.05
33496;BME280;19836;55.812;37.560;2023-04-26T10:12:18;98197.84;;;15.90;71.49
33496;BME280;19836;55.812;37.560;2023-04-26T10:14:45;98206.09;;;15.99;70.99
33496;BME280;19836;55.812;37.560;2023-04-26T10:17:12;98214.03;;;16.13;70.73
33496;BME280;19836;55.812;37.560;2023-04-26T10:19:40;98207.91;;;16.22;70.54
33496;BME280;19836;55.812;37.560;2023-04-26T10:22:18;98199.22;;;16.30;70.00
33496;BME280;19836;55.812;37.560;2023-04-26T10:24:47;98212.59;;;16.31;69.84
33496;BME280;19836;55.812;37.560;2023-04-26T10:27:13;98211.38;;;16.35;69.63
33496;BME280;19836;55.812;37.560;2023-04-26T10:32:21;98215.88;;;16.24;69.35
33496;BME280;19836;55.812;37.560;2023-04-26T10:35:12;98220.84;;;16.06;69.19
33496;BME280;19836;55.812;37.560;2023-04-26T10:40:24;98243.69;;;15.55;69.80
33496;BME280;19836;55.812;37.560;2023-04-26T10:45:39;98235.50;;;15.44;70.69
33496;BME280;19836;55.812;37.560;2023-04-26T10:48:19;98244.50;;;15.68;71.12
33496;BME280;19836;55.812;37.560;2023-04-26T10:56:00;98231.47;;;16.20;69.44
33496;BME280;19836;55.812;37.560;2023-04-26T10:58:32;98228.56;;;16.23;69.22
33496;BME280;19836;55.812;37.560;2023-04-26T11:01:09;98231.13;;;16.48;69.46
33496;BME280;19836;55.812;37.560;2023-04-26T11:03:42;98232.78;;;17.06;68.71
33496;BME280;19836;55.812;37.560;2023-04-26T11:06:09;98233.03;;;18.00;67.16
33496;BME280;19836;55.812;37.560;2023-04-26T11:08:38;98233.13;;;19.42;63.96
33496;BME280;19836;55.812;37.560;2023-04-26T11:11:07;98223.22;;;21.77;59.21
33496;BME280;19836;55.812;37.560;2023-04-26T11:13:38;98221.41;;;23.08;53.58
33496;BME280;19836;55.812;37.560;2023-04-26T11:16:06;98217.09;;;24.80;49.86
33496;BME280;19836;55.812;37.560;2023-04-26T11:18:34;98224.22;;;26.30;46.10
33496;BME280;19836;55.812;37.560;2023-04-26T11:21:02;98227.53;;;26.93;43.36
33496;BME280;19836;55.812;37.560;2023-04-26T11:23:29;98217.31;;;27.38;40.22
33496;BME280;19836;55.812;37.560;2023-04-26T11:26:00;98220.47;;;27.93;37.73
33496;BME280;19836;55.812;37.560;2023-04-26T11:28:29;98230.91;;;25.42;38.39
33496;BME280;19836;55.812;37.560;2023-04-26T11:30:56;98240.06;;;23.72;40.94
33496;BME280;19836;55.812;37.560;2023-04-26T11:33:22;98235.63;;;22.69;43.47
33496;BME280;19836;55.812;37.560;2023-04-26T11:35:50;98241.59;;;22.90;43.92
33496;BME280;19836;55.812;37.560;2023-04-26T11:38:16;98242.81;;;25.65;41.04
33496;BME280;19836;55.812;37.560;2023-04-26T11:40:43;98246.28;;;25.67;39.63
33496;BME280;19836;55.812;37.560;2023-04-26T11:43:10;98237.22;;;24.47;40.61
33496;BME280;19836;55.812;37.560;2023-04-26T11:45:37;98254.28;;;23.42;42.29
33496;BME280;19836;55.812;37.560;2023-04-26T11:48:05;98262.72;;;22.62;43.52
33496;BME280;19836;55.812;37.560;2023-04-26T11:50:33;98265.59;;;21.62;44.63
33496;BME280;19836;55.812;37.560;2023-04-26T11:53:03;98275.75;;;20.97;45.62
33496;BME280;19836;55.812;37.560;2023-04-26T11:55:31;98270.31;;;20.49;46.51
33496;BME280;19836;55.812;37.560;2023-04-26T11:57:58;98285.16;;;20.17;47.22
33496;BME280;19836;55.812;37.560;2023-04-26T12:00:25;98283.31;;;19.78;47.81
33496;BME280;19836;55.812;37.560;2023-04-26T12:02:51;98287.03;;;19.17;48.68
33496;BME280;19836;55.812;37.560;2023-04-26T12:05:27;98288.03;;;18.54;50.22
33496;BME280;19836;55.812;37.560;2023-04-26T12:07:58;98290.13;;;18.19;51.20
33496;BME280;19836;55.812;37.560;2023-04-26T12:10:37;98298.06;;;18.00;52.10
33496;BME280;19836;55.812;37.560;2023-04-26T12:13:03;98303.28;;;17.92;52.76
33496;BME280;19836;55.812;37.560;2023-04-26T12:15:31;98296.88;;;17.93;53.19
33496;BME280;19836;55.812;37.560;2023-04-26T12:18:06;98296.06;;;18.02;53.43
33496;BME280;19836;55.812;37.560;2023-04-26T12:20:34;98298.34;;;18.29;52.96
33496;BME280;19836;55.812;37.560;2023-04-26T12:25:28;98288.84;;;18.86;51.89
33496;BME280;19836;55.812;37.560;2023-04-26T12:27:55;98290.09;;;19.03;51.17
33496;BME280;19836;55.812;37.560;2023-04-26T12:30:21;98287.63;;;19.90;50.16
33496;BME280;19836;55.812;37.560;2023-04-26T12:33:00;98298.31;;;21.62;46.77
33496;BME280;19836;55.812;37.560;2023-04-26T12:35:27;98288.63;;;22.14;45.19
33496;BME280;19836;55.812;37.560;2023-04-26T12:37:53;98294.34;;;24.75;42.03
33496;BME280;19836;55.812;37.560;2023-04-26T12:40:24;98287.69;;;27.10;37.50
33496;BME280;19836;55.812;37.560;2023-04-26T12:42:51;98288.84;;;28.04;35.17
33496;BME280;19836;55.812;37.560;2023-04-26T12:45:18;98297.06;;;27.46;34.92
33496;BME280;19836;55.812;37.560;2023-04-26T12:47:45;98280.81;;;26.92;34.82
33496;BME280;19836;55.812;37.560;2023-04-26T12:50:12;98286.00;;;25.87;35.34
33496;BME280;19836;55.812;37.560;2023-04-26T12:52:40;98291.19;;;26.21;35.60
33496;BME280;19836;55.812;37.560;2023-04-26T12:55:07;98293.16;;;27.55;34.34
33496;BME280;19836;55.812;37.560;2023-04-26T12:57:38;98286.44;;;28.80;32.38
33496;BME280;19836;55.812;37.560;2023-04-26T13:00:07;98285.44;;;30.06;30.97
33496;BME280;19836;55.812;37.560;2023-04-26T13:02:34;98282.66;;;30.93;29.66
33496;BME280;19836;55.812;37.560;2023-04-26T13:05:01;98286.88;;;30.83;28.55
33496;BME280;19836;55.812;37.560;2023-04-26T13:07:34;98291.41;;;31.03;27.94
33496;BME280;19836;55.812;37.560;2023-04-26T13:10:00;98289.13;;;31.46;27.37